sensor_id;sensor_type;location;lat;lon;timestamp;temperature;humidity
37342;DHT22;58643;49.052;8.518;2022-11-20T14:36:05;9.40;99.90
37342;DHT22;58643;49.052;8.518;2022-11-20T14:38:34;9.70;99.90
37342;DHT22;58643;49.052;8.518;2022-11-20T14:41:16;9.90;99.90
37342;DHT22;58643;49.052;8.518;2022-11-20T14:43:45;11.50;99.90
37342;DHT22;58643;49.052;8.518;2022-11-20T14:46:11;9.80;99.90
37342;DHT22;58643;49.052;8.518;2022-11-20T14:51:05;9.60;99.90
37342;DHT22;58643;49.052;8.518;2022-11-20T14:53:30;9.50;99.90
37342;DHT22;58643;49.052;8.518;2022-11-20T14:56:01;10.00;99.90
37342;DHT22;58643;49.052;8.518;2022-11-20T14:58:32;9.40;99.90
37342;DHT22;58643;49.052;8.518;2022-11-20T15:01:04;9.50;99.90
37342;DHT22;58643;49.052;8.518;2022-11-20T15:03:36;11.40;99.90
37342;DHT22;58643;49.052;8.518;2022-11-20T15:06:03;10.30;99.90
37342;DHT22;58643;49.052;8.518;2022-11-20T15:08:29;9.10;99.90
37342;DHT22;58643;49.052;8.518;2022-11-20T15:10:55;9.20;99.90
37342;DHT22;58643;49.052;8.518;2022-11-20T15:13:26;10.90;99.90
37342;DHT22;58643;49.052;8.518;2022-11-20T15:15:55;9.20;99.90
37342;DHT22;58643;49.052;8.518;2022-11-20T15:18:23;10.60;99.90
37342;DHT22;58643;49.052;8.518;2022-11-20T15:20:52;9.00;99.90
37342;DHT22;58643;49.052;8.518;2022-11-20T15:23:20;9.00;99.90
37342;DHT22;58643;49.052;8.518;2022-11-20T15:25:46;9.00;99.90
37342;DHT22;58643;49.052;8.518;2022-11-20T15:28:36;8.90;99.90
37342;DHT22;58643;49.052;8.518;2022-11-20T15:31:03;8.70;99.90
37342;DHT22;58643;49.052;8.518;2022-11-20T15:33:30;9.00;99.90
37342;DHT22;58643;49.052;8.518;2022-11-20T15:35:56;10.60;99.90
37342;DHT22;58643;49.052;8.518;2022-11-20T15:38:22;9.50;99.90
37342;DHT22;58643;49.052;8.518;2022-11-20T15:40:48;8.80;99.90
37342;DHT22;58643;49.052;8.518;2022-11-20T15:43:16;9.10;99.90
37342;DHT22;58643;49.052;8.518;2022-11-20T15:45:44;8.80;99.90
37342;DHT22;58643;49.052;8.518;2022-11-20T15:48:21;8.90;99.90
37342;DHT22;58643;49.052;8.518;2022-11-20T15:50:58;8.80;99.90
37342;DHT22;58643;49.052;8.518;2022-11-20T15:53:23;8.90;99.90
37342;DHT22;58643;49.052;8.518;2022-11-20T15:55:49;10.80;99.90
37342;DHT22;58643;49.052;8.518;2022-11-20T15:58:15;8.80;99.90
37342;DHT22;58643;49.052;8.518;2022-11-20T16:00:42;8.90;99.90
37342;DHT22;58643;49.052;8.518;2022-11-20T16:03:12;8.80;99.90
37342;DHT22;58643;49.052;8.518;2022-11-20T16:05:38;8.60;99.90
37342;DHT22;58643;49.052;8.518;2022-11-20T16:08:04;8.70;99.90
37342;DHT22;58643;49.052;8.518;2022-11-20T16:10:29;8.80;99.90
37342;DHT22;58643;49.052;8.518;2022-11-20T16:12:55;8.80;99.90
37342;DHT22;58643;49.052;8.518;2022-11-20T16:15:39;8.80;99.90
37342;DHT22;58643;49.052;8.518;2022-11-20T16:18:12;8.80;99.90
37342;DHT22;58643;49.052;8.518;2022-11-20T16:20:38;9.30;99.90
37342;DHT22;58643;49.052;8.518;2022-11-20T16:23:04;8.90;99.90
37342;DHT22;58643;49.052;8.518;2022-11-20T16:25:30;8.90;99.90
37342;DHT22;58643;49.052;8.518;2022-11-20T16:27:56;8.90;99.90
37342;DHT22;58643;49.052;8.518;2022-11-20T16:30:22;8.90;99.90
37342;DHT22;58643;49.052;8.518;2022-11-20T16:32:47;8.90;99.90
37342;DHT22;58643;49.052;8.518;2022-11-20T16:35:13;9.20;99.90
37342;DHT22;58643;49.052;8.518;2022-11-20T16:37:39;8.90;99.90
37342;DHT22;58643;49.052;8.518;2022-11-20T16:40:05;10.10;99.90
37342;DHT22;58643;49.052;8.518;2022-11-20T16:42:35;9.00;99.90
37342;DHT22;58643;49.052;8.518;2022-11-20T16:45:01;9.00;99.90
37342;DHT22;58643;49.052;8.518;2022-11-20T16:47:27;9.00;99.90
37342;DHT22;58643;49.052;8.518;2022-11-20T16:49:52;11.20;99.90
37342;DHT22;58643;49.052;8.518;2022-11-20T16:52:18;8.90;99.90
37342;DHT22;58643;49.052;8.518;2022-11-20T16:54:43;8.90;99.90
37342;DHT22;58643;49.052;8.518;2022-11-20T16:57:09;8.80;99.90
37342;DHT22;58643;49.052;8.518;2022-11-20T16:59:35;8.70;99.90
37342;DHT22;58643;49.052;8.518;2022-11-20T17:02:00;8.90;99.90
37342;DHT22;58643;49.052;8.518;2022-11-20T17:04:26;9.30;99.90
37342;DHT22;58643;49.052;8.518;2022-11-20T17:06:54;10.30;99.90
37342;DHT22;58643;49.052;8.518;2022-11-20T17:09:20;8.50;99.90
37342;DHT22;58643;49.052;8.518;2022-11-20T17:11:47;7.90;99.90
37342;DHT22;58643;49.052;8.518;2022-11-20T17:14:13;8.70;99.90
37342;DHT22;58643;49.052;8.518;2022-11-20T17:16:39;8.50;99.90
37342;DHT22;58643;49.052;8.518;2022-11-20T17:19:05;8.50;99.90
37342;DHT22;58643;49.052;8.518;2022-11-20T17:21:31;8.50;99.90
37342;DHT22;58643;49.052;8.518;2022-11-20T17:24:02;8.90;99.90
37342;DHT22;58643;49.052;8.518;2022-11-20T17:26:28;10.90;99.90
37342;DHT22;58643;49.052;8.518;2022-11-20T17:29:22;7.90;99.90
37342;DHT22;58643;49.052;8.518;2022-11-20T17:31:49;9.10;99.90
37342;DHT22;58643;49.052;8.518;2022-11-20T17:34:15;7.90;99.90
37342;DHT22;58643;49.052;8.518;2022-11-20T17:36:42;7.90;99.90
37342;DHT22;58643;49.052;8.518;2022-11-20T17:39:14;7.80;99.90
37342;DHT22;58643;49.052;8.518;2022-11-20T17:41:40;8.00;99.90
37342;DHT22;58643;49.052;8.518;2022-11-20T17:44:09;8.10;99.90
37342;DHT22;58643;49.052;8.518;2022-11-20T17:46:35;7.90;99.90
37342;DHT22;58643;49.052;8.518;2022-11-20T17:49:01;7.90;99.90
37342;DHT22;58643;49.052;8.518;2022-11-20T17:51:29;7.90;99.90
37342;DHT22;58643;49.052;8.518;2022-11-20T17:54:00;8.00;99.90
37342;DHT22;58643;49.052;8.518;2022-11-20T17:56:30;8.10;99.90
37342;DHT22;58643;49.052;8.518;2022-11-20T17:59:14;8.10;99.90
37342;DHT22;58643;49.052;8.518;2022-11-20T18:01:40;8.10;99.90
37342;DHT22;58643;49.052;8.518;2022-11-20T18:04:12;8.20;99.90
37342;DHT22;58643;49.052;8.518;2022-11-20T18:06:38;9.30;99.90
37342;DHT22;58643;49.052;8.518;2022-11-20T18:09:04;8.10;99.90
37342;DHT22;58643;49.052;8.518;2022-11-20T18:11:32;8.20;99.90
37342;DHT22;58643;49.052;8.518;2022-11-20T18:14:00;7.80;99.90
37342;DHT22;58643;49.052;8.518;2022-11-20T18:16:53;7.80;99.90
37342;DHT22;58643;49.052;8.518;2022-11-20T18:19:23;7.70;99.90
37342;DHT22;58643;49.052;8.518;2022-11-20T18:21:48;7.80;99.90
37342;DHT22;58643;49.052;8.518;2022-11-20T18:24:15;7.60;99.90
37342;DHT22;58643;49.052;8.518;2022-11-20T18:26:41;7.50;99.90
37342;DHT22;58643;49.052;8.518;2022-11-20T18:29:06;7.50;99.90
37342;DHT22;58643;49.052;8.518;2022-11-20T18:31:32;7.40;99.90
37342;DHT22;58643;49.052;8.518;2022-11-20T18:33:58;7.70;99.90
37342;DHT22;58643;49.052;8.518;2022-11-20T18:36:26;7.10;99.90
37342;DHT22;58643;49.052;8.518;2022-11-20T18:38:53;6.90;99.90
37342;DHT22;58643;49.052;8.518;2022-11-20T18:41:21;6.90;99.90
37342;DHT22;58643;49.052;8.518;2022-11-20T18:44:14;6.80;99.90
37342;DHT22;58643;49.052;8.518;2022-11-20T18:46:58;6.90;99.90
37342;DHT22;58643;49.052;8.518;2022-11-20T18:49:24;9.90;99.90
37342;DHT22;58643;49.052;8.518;2022-11-20T18:51:50;6.70;99.90
37342;DHT22;58643;49.052;8.518;2022-11-20T18:54:16;6.80;99.90
37342;DHT22;58643;49.052;8.518;2022-11-20T18:56:41;6.70;99.90
37342;DHT22;58643;49.052;8.518;2022-11-20T18:59:12;6.60;99.90
37342;DHT22;58643;49.052;8.518;2022-11-20T19:01:38;6.40;99.90
37342;DHT22;58643;49.052;8.518;2022-11-20T19:04:08;6.80;99.90
37342;DHT22;58643;49.052;8.518;2022-11-20T19:06:39;6.50;99.90
37342;DHT22;58643;49.052;8.518;2022-11-20T19:09:06;7.80;99.90
37342;DHT22;58643;49.052;8.518;2022-11-20T19:11:37;7.30;99.90
37342;DHT22;58643;49.052;8.518;2022-11-20T19:14:03;6.50;99.90
37342;DHT22;58643;49.052;8.518;2022-11-20T19:16:29;6.40;99.90
37342;DHT22;58643;49.052;8.518;2022-11-20T19:18:55;6.50;99.90
37342;DHT22;58643;49.052;8.518;2022-11-20T19:21:22;6.50;99.90
37342;DHT22;58643;49.052;8.518;2022-11-20T19:23:50;6.50;99.90
37342;DHT22;58643;49.052;8.518;2022-11-20T19:26:16;7.40;99.90
37342;DHT22;58643;49.052;8.518;2022-11-20T19:28:42;6.50;99.90
37342;DHT22;58643;49.052;8.518;2022-11-20T19:31:10;6.50;99.90
37342;DHT22;58643;49.052;8.518;2022-11-20T19:33:37;6.30;99.90
37342;DHT22;58643;49.052;8.518;2022-11-20T19:36:13;6.40;99.90
37342;DHT22;58643;49.052;8.518;2022-11-20T19:38:40;6.40;99.90
37342;DHT22;58643;49.052;8.518;2022-11-20T19:41:09;6.40;99.90
37342;DHT22;58643;49.052;8.518;2022-11-20T19:43:35;6.50;99.90
37342;DHT22;58643;49.052;8.518;2022-11-20T19:46:01;6.40;99.90
37342;DHT22;58643;49.052;8.518;2022-11-20T19:48:35;6.40;99.90
37342;DHT22;58643;49.052;8.518;2022-11-20T19:51:09;6.50;99.90
37342;DHT22;58643;49.052;8.518;2022-11-20T19:53:35;7.70;99.90
37342;DHT22;58643;49.052;8.518;2022-11-20T19:56:01;6.60;99.90
37342;DHT22;58643;49.052;8.518;2022-11-20T19:58:27;6.40;99.90
37342;DHT22;58643;49.052;8.518;2022-11-20T20:00:53;6.30;99.90
37342;DHT22;58643;49.052;8.518;2022-11-20T20:03:19;6.40;99.90
37342;DHT22;58643;49.052;8.518;2022-11-20T20:05:45;6.30;99.90
37342;DHT22;58643;49.052;8.518;2022-11-20T20:08:11;6.50;99.90
37342;DHT22;58643;49.052;8.518;2022-11-20T20:10:37;8.20;99.90
37342;DHT22;58643;49.052;8.518;2022-11-20T20:13:03;8.10;99.90
37342;DHT22;58643;49.052;8.518;2022-11-20T20:15:29;6.40;99.90
37342;DHT22;58643;49.052;8.518;2022-11-20T20:17:55;6.20;99.90
37342;DHT22;58643;49.052;8.518;2022-11-20T20:20:21;6.30;99.90
37342;DHT22;58643;49.052;8.518;2022-11-20T20:22:46;6.30;99.90
37342;DHT22;58643;49.052;8.518;2022-11-20T20:25:12;6.20;99.90
37342;DHT22;58643;49.052;8.518;2022-11-20T20:27:38;6.30;99.90
37342;DHT22;58643;49.052;8.518;2022-11-20T20:30:05;6.20;99.90
37342;DHT22;58643;49.052;8.518;2022-11-20T20:32:31;6.20;99.90
